NKS209 KMCO-KFLL
Flight info
| Callsign | NKS209 |
|---|---|
| Flight time | 1h 6m |
| Altitude | 29000 |
| Route | DDANY3 JIPOD CUUDA3 |
| Aircraft | A320/M-SDE3FGHIRWY/LB1 |
Departure
| Time | 2026-05-03 21:17 |
|---|---|
| Airport | Orlando International Airport (KMCO) |
Arrival
| Time | 2026-05-03 22:24 |
|---|---|
| Airport | Fort Lauderdale Hollywood International Airport (KFLL) |
| Time | Latitude | Longitude | Altitude | Speed | Heading |
|---|---|---|---|---|---|
| 2026-05-03 20:46 | 28.43518 | -81.31244 | 102 ft | 0 kts | 324° |
| 2026-05-03 21:03 | 28.43518 | -81.31243 | 111 ft | 0 kts | 324° |
| 2026-05-03 21:05 | 28.43511 | -81.31238 | 102 ft | 3 kts | 320° |
| 2026-05-03 21:05 | 28.43497 | -81.31222 | 102 ft | 3 kts | 304° |
| 2026-05-03 21:05 | 28.43487 | -81.31202 | 100 ft | 3 kts | 295° |
| 2026-05-03 21:06 | 28.43478 | -81.31183 | 102 ft | 3 kts | 328° |
| 2026-05-03 21:06 | 28.43476 | -81.31177 | 101 ft | 1 kts | 40° |
| 2026-05-03 21:06 | 28.43475 | -81.31178 | 101 ft | 2 kts | 41° |
| 2026-05-03 21:10 | 28.43476 | -81.31177 | 101 ft | 1 kts | 41° |
| 2026-05-03 21:10 | 28.43494 | -81.31160 | 101 ft | 6 kts | 39° |
| 2026-05-03 21:11 | 28.43562 | -81.31137 | 99 ft | 12 kts | 11° |
| 2026-05-03 21:11 | 28.43656 | -81.31168 | 99 ft | 15 kts | 324° |
| 2026-05-03 21:11 | 28.43695 | -81.31267 | 100 ft | 16 kts | 249° |
| 2026-05-03 21:11 | 28.43687 | -81.31393 | 101 ft | 17 kts | 278° |
| 2026-05-03 21:12 | 28.43711 | -81.31532 | 102 ft | 19 kts | 277° |
| 2026-05-03 21:12 | 28.43642 | -81.31629 | 102 ft | 17 kts | 193° |
| 2026-05-03 21:12 | 28.43527 | -81.31667 | 102 ft | 17 kts | 219° |
| 2026-05-03 21:12 | 28.43490 | -81.31787 | 103 ft | 16 kts | 233° |
| 2026-05-03 21:13 | 28.43393 | -81.31845 | 102 ft | 18 kts | 180° |
| 2026-05-03 21:13 | 28.43256 | -81.31840 | 101 ft | 21 kts | 181° |
| 2026-05-03 21:13 | 28.43109 | -81.31842 | 102 ft | 22 kts | 177° |
| 2026-05-03 21:13 | 28.42945 | -81.31837 | 102 ft | 25 kts | 179° |
| 2026-05-03 21:14 | 28.42766 | -81.31834 | 105 ft | 26 kts | 180° |
| 2026-05-03 21:14 | 28.42581 | -81.31835 | 106 ft | 27 kts | 180° |
| 2026-05-03 21:14 | 28.42381 | -81.31833 | 106 ft | 30 kts | 179° |
| 2026-05-03 21:14 | 28.42192 | -81.31853 | 107 ft | 27 kts | 195° |
| 2026-05-03 21:15 | 28.42005 | -81.31876 | 103 ft | 29 kts | 179° |
| 2026-05-03 21:15 | 28.41796 | -81.31873 | 103 ft | 31 kts | 180° |
| 2026-05-03 21:15 | 28.41619 | -81.31873 | 99 ft | 17 kts | 180° |
| 2026-05-03 21:15 | 28.41543 | -81.31950 | 99 ft | 17 kts | 261° |
| 2026-05-03 21:16 | 28.41543 | -81.32081 | 101 ft | 17 kts | 269° |
| 2026-05-03 21:16 | 28.41558 | -81.32188 | 101 ft | 12 kts | 320° |
| 2026-05-03 21:16 | 28.41638 | -81.32196 | 101 ft | 4 kts | 358° |
| 2026-05-03 21:16 | 28.41719 | -81.32198 | 100 ft | 30 kts | 359° |
| 2026-05-03 21:17 | 28.42173 | -81.32200 | 107 ft | 97 kts | 359° |
| 2026-05-03 21:17 | 28.42702 | -81.32208 | 106 ft | 132 kts | 359° |
| 2026-05-03 21:17 | 28.44138 | -81.32239 | 517 ft | 155 kts | 2° |
| 2026-05-03 21:17 | 28.45183 | -81.32287 | 1303 ft | 147 kts | 1° |
| 2026-05-03 21:18 | 28.46178 | -81.32098 | 1889 ft | 148 kts | 30° |
| 2026-05-03 21:18 | 28.46948 | -81.31278 | 2170 ft | 166 kts | 60° |
| 2026-05-03 21:18 | 28.47423 | -81.29983 | 2429 ft | 189 kts | 70° |
| 2026-05-03 21:18 | 28.47474 | -81.28397 | 2695 ft | 219 kts | 107° |
| 2026-05-03 21:19 | 28.46743 | -81.26756 | 3106 ft | 245 kts | 116° |
| 2026-05-03 21:19 | 28.45915 | -81.24991 | 3774 ft | 257 kts | 115° |
| 2026-05-03 21:19 | 28.45088 | -81.23193 | 4645 ft | 262 kts | 116° |
| 2026-05-03 21:19 | 28.44234 | -81.21328 | 5468 ft | 270 kts | 117° |
| 2026-05-03 21:20 | 28.43347 | -81.19397 | 6216 ft | 281 kts | 120° |
| 2026-05-03 21:20 | 28.42420 | -81.17392 | 6935 ft | 289 kts | 119° |
| 2026-05-03 21:20 | 28.41477 | -81.15352 | 7712 ft | 295 kts | 120° |
| 2026-05-03 21:20 | 28.40515 | -81.13271 | 8492 ft | 301 kts | 121° |
| 2026-05-03 21:21 | 28.39533 | -81.11148 | 9249 ft | 307 kts | 121° |
| 2026-05-03 21:21 | 28.38527 | -81.08979 | 9990 ft | 314 kts | 121° |
| 2026-05-03 21:21 | 28.37478 | -81.06720 | 10334 ft | 335 kts | 121° |
| 2026-05-03 21:21 | 28.36353 | -81.04303 | 10521 ft | 358 kts | 121° |
| 2026-05-03 21:22 | 28.35178 | -81.01775 | 10937 ft | 371 kts | 121° |
| 2026-05-03 21:22 | 28.33970 | -80.99166 | 11584 ft | 376 kts | 121° |
| 2026-05-03 21:22 | 28.32748 | -80.96527 | 12288 ft | 379 kts | 122° |
| 2026-05-03 21:22 | 28.31511 | -80.93857 | 12975 ft | 383 kts | 122° |
| 2026-05-03 21:23 | 28.30283 | -80.91210 | 13629 ft | 387 kts | 122° |
| 2026-05-03 21:23 | 28.29020 | -80.88492 | 14261 ft | 391 kts | 122° |
| 2026-05-03 21:23 | 28.27784 | -80.85722 | 14802 ft | 398 kts | 117° |
| 2026-05-03 21:23 | 28.26730 | -80.82795 | 15342 ft | 403 kts | 116° |
| 2026-05-03 21:24 | 28.25664 | -80.79823 | 15878 ft | 408 kts | 116° |
| 2026-05-03 21:24 | 28.24586 | -80.76821 | 16416 ft | 413 kts | 116° |
| 2026-05-03 21:24 | 28.23493 | -80.73780 | 16947 ft | 418 kts | 116° |
| 2026-05-03 21:24 | 28.22386 | -80.70703 | 17488 ft | 423 kts | 116° |
| 2026-05-03 21:25 | 28.21266 | -80.67591 | 18034 ft | 428 kts | 116° |
| 2026-05-03 21:25 | 28.20169 | -80.64476 | 18550 ft | 433 kts | 115° |
| 2026-05-03 21:25 | 28.19095 | -80.61280 | 19053 ft | 437 kts | 115° |
| 2026-05-03 21:25 | 28.18035 | -80.58027 | 19579 ft | 441 kts | 114° |
| 2026-05-03 21:26 | 28.16980 | -80.54753 | 20119 ft | 444 kts | 115° |
| 2026-05-03 21:26 | 28.15907 | -80.51436 | 20647 ft | 448 kts | 115° |
| 2026-05-03 21:26 | 28.15503 | -80.50194 | 20854 ft | 449 kts | 115° |
| 2026-05-03 21:27 | 28.15390 | -80.49848 | 20903 ft | 449 kts | 115° |
| 2026-05-03 21:27 | 28.14298 | -80.46522 | 21421 ft | 452 kts | 115° |
| 2026-05-03 21:27 | 28.13192 | -80.43172 | 21922 ft | 455 kts | 116° |
| 2026-05-03 21:27 | 28.12008 | -80.39841 | 22402 ft | 455 kts | 122° |
| 2026-05-03 21:28 | 28.10417 | -80.36764 | 22872 ft | 449 kts | 132° |
| 2026-05-03 21:28 | 28.08444 | -80.34060 | 23030 ft | 442 kts | 142° |
| 2026-05-03 21:28 | 28.06107 | -80.31770 | 23071 ft | 443 kts | 152° |
| 2026-05-03 21:28 | 28.03537 | -80.29968 | 23059 ft | 436 kts | 161° |
| 2026-05-03 21:29 | 28.00770 | -80.28644 | 23063 ft | 428 kts | 169° |
| 2026-05-03 21:29 | 27.97958 | -80.27557 | 23062 ft | 429 kts | 169° |
| 2026-05-03 21:29 | 27.95123 | -80.26453 | 23064 ft | 429 kts | 169° |
| 2026-05-03 21:29 | 27.92293 | -80.25346 | 23066 ft | 429 kts | 169° |
| 2026-05-03 21:30 | 27.89463 | -80.24236 | 23067 ft | 430 kts | 169° |
| 2026-05-03 21:30 | 27.86656 | -80.23136 | 23066 ft | 430 kts | 169° |
| 2026-05-03 21:30 | 27.83816 | -80.22026 | 23069 ft | 430 kts | 169° |
| 2026-05-03 21:30 | 27.80989 | -80.20922 | 23066 ft | 430 kts | 169° |
| 2026-05-03 21:31 | 27.78157 | -80.19816 | 23070 ft | 430 kts | 169° |
| 2026-05-03 21:31 | 27.75326 | -80.18714 | 23068 ft | 430 kts | 169° |
| 2026-05-03 21:31 | 27.72511 | -80.17622 | 23072 ft | 430 kts | 169° |
| 2026-05-03 21:31 | 27.69667 | -80.16520 | 23065 ft | 430 kts | 169° |
| 2026-05-03 21:32 | 27.66861 | -80.15427 | 22738 ft | 422 kts | 169° |
| 2026-05-03 21:32 | 27.64092 | -80.14346 | 22484 ft | 419 kts | 169° |
| 2026-05-03 21:32 | 27.61341 | -80.13275 | 22215 ft | 418 kts | 168° |
| 2026-05-03 21:32 | 27.58634 | -80.12193 | 21967 ft | 417 kts | 168° |
| 2026-05-03 21:33 | 27.55911 | -80.11074 | 21712 ft | 416 kts | 167° |
| 2026-05-03 21:33 | 27.53188 | -80.09939 | 21460 ft | 415 kts | 167° |
| 2026-05-03 21:33 | 27.50486 | -80.08810 | 21211 ft | 413 kts | 167° |
| 2026-05-03 21:33 | 27.47781 | -80.07683 | 20961 ft | 412 kts | 167° |
| 2026-05-03 21:34 | 27.45104 | -80.06570 | 20715 ft | 411 kts | 167° |
| 2026-05-03 21:34 | 27.42422 | -80.05460 | 20471 ft | 409 kts | 167° |
| 2026-05-03 21:34 | 27.39741 | -80.04360 | 20232 ft | 410 kts | 167° |
| 2026-05-03 21:34 | 27.37059 | -80.03314 | 19989 ft | 405 kts | 169° |
| 2026-05-03 21:35 | 27.34358 | -80.02405 | 19753 ft | 402 kts | 171° |
| 2026-05-03 21:35 | 27.31734 | -80.01611 | 19516 ft | 392 kts | 172° |
| 2026-05-03 21:35 | 27.29105 | -80.00856 | 19282 ft | 388 kts | 173° |
| 2026-05-03 21:35 | 27.26497 | -80.00116 | 19067 ft | 383 kts | 172° |
| 2026-05-03 21:36 | 27.23954 | -79.99350 | 18836 ft | 375 kts | 171° |
| 2026-05-03 21:36 | 27.21459 | -79.98501 | 18602 ft | 374 kts | 169° |
| 2026-05-03 21:36 | 27.18982 | -79.97599 | 18372 ft | 373 kts | 168° |
| 2026-05-03 21:36 | 27.16529 | -79.96680 | 18114 ft | 371 kts | 168° |
| 2026-05-03 21:37 | 27.14077 | -79.95761 | 17851 ft | 370 kts | 168° |
| 2026-05-03 21:37 | 27.11625 | -79.94852 | 17586 ft | 369 kts | 168° |
| 2026-05-03 21:37 | 27.09188 | -79.93963 | 17329 ft | 368 kts | 168° |
| 2026-05-03 21:37 | 27.06757 | -79.93086 | 17068 ft | 366 kts | 168° |
| 2026-05-03 21:38 | 27.04341 | -79.92172 | 16815 ft | 366 kts | 167° |
| 2026-05-03 21:38 | 27.01952 | -79.91216 | 16565 ft | 365 kts | 166° |
| 2026-05-03 21:38 | 26.99570 | -79.90235 | 16316 ft | 364 kts | 166° |
| 2026-05-03 21:38 | 26.97194 | -79.89252 | 16068 ft | 363 kts | 166° |
| 2026-05-03 21:39 | 26.94823 | -79.88276 | 15827 ft | 362 kts | 166° |
| 2026-05-03 21:39 | 26.92460 | -79.87313 | 15588 ft | 361 kts | 166° |
| 2026-05-03 21:39 | 26.90100 | -79.86361 | 15347 ft | 359 kts | 166° |
| 2026-05-03 21:39 | 26.87749 | -79.85415 | 15114 ft | 358 kts | 166° |
| 2026-05-03 21:40 | 26.85404 | -79.84470 | 14900 ft | 357 kts | 166° |
| 2026-05-03 21:40 | 26.83071 | -79.83529 | 15009 ft | 357 kts | 166° |
| 2026-05-03 21:40 | 26.80758 | -79.82602 | 15021 ft | 358 kts | 166° |
| 2026-05-03 21:40 | 26.78409 | -79.81661 | 14764 ft | 358 kts | 166° |
| 2026-05-03 21:41 | 26.76054 | -79.80718 | 14324 ft | 359 kts | 165° |
| 2026-05-03 21:41 | 26.73711 | -79.79781 | 13893 ft | 358 kts | 166° |
| 2026-05-03 21:41 | 26.71319 | -79.79177 | 13520 ft | 345 kts | 178° |
| 2026-05-03 21:41 | 26.68977 | -79.79129 | 12806 ft | 330 kts | 191° |
| 2026-05-03 21:42 | 26.66756 | -79.79633 | 12458 ft | 325 kts | 201° |
| 2026-05-03 21:42 | 26.64769 | -79.80435 | 12096 ft | 324 kts | 204° |
| 2026-05-03 21:42 | 26.62656 | -79.81305 | 11736 ft | 323 kts | 204° |
| 2026-05-03 21:42 | 26.60550 | -79.82161 | 11367 ft | 321 kts | 204° |
| 2026-05-03 21:43 | 26.58474 | -79.82999 | 11132 ft | 312 kts | 204° |
| 2026-05-03 21:43 | 26.56478 | -79.83804 | 10878 ft | 298 kts | 204° |
| 2026-05-03 21:43 | 26.54553 | -79.84598 | 10396 ft | 292 kts | 205° |
| 2026-05-03 21:43 | 26.52699 | -79.85438 | 10256 ft | 283 kts | 206° |
| 2026-05-03 21:44 | 26.51501 | -79.85998 | 10068 ft | 281 kts | 206° |
| 2026-05-03 21:44 | 26.49696 | -79.86832 | 9772 ft | 280 kts | 206° |
| 2026-05-03 21:44 | 26.47909 | -79.87671 | 9521 ft | 279 kts | 207° |
| 2026-05-03 21:44 | 26.46115 | -79.88526 | 9238 ft | 278 kts | 207° |
| 2026-05-03 21:45 | 26.44338 | -79.89379 | 8917 ft | 277 kts | 207° |
| 2026-05-03 21:45 | 26.42572 | -79.90229 | 8627 ft | 276 kts | 207° |
| 2026-05-03 21:45 | 26.40820 | -79.91069 | 8278 ft | 275 kts | 206° |
| 2026-05-03 21:45 | 26.39063 | -79.91909 | 8027 ft | 272 kts | 206° |
| 2026-05-03 21:46 | 26.37383 | -79.92868 | 8016 ft | 272 kts | 213° |
| 2026-05-03 21:46 | 26.35737 | -79.93931 | 8011 ft | 273 kts | 213° |
| 2026-05-03 21:46 | 26.34083 | -79.94994 | 7872 ft | 275 kts | 213° |
| 2026-05-03 21:46 | 26.32458 | -79.96038 | 7466 ft | 272 kts | 213° |
| 2026-05-03 21:47 | 26.30821 | -79.97089 | 7242 ft | 270 kts | 213° |
| 2026-05-03 21:47 | 26.29191 | -79.98133 | 7061 ft | 270 kts | 212° |
| 2026-05-03 21:47 | 26.27573 | -79.99171 | 6886 ft | 268 kts | 213° |
| 2026-05-03 21:47 | 26.25951 | -80.00210 | 6714 ft | 268 kts | 212° |
| 2026-05-03 21:48 | 26.24330 | -80.01252 | 6546 ft | 269 kts | 212° |
| 2026-05-03 21:48 | 26.22707 | -80.02296 | 6368 ft | 268 kts | 212° |
| 2026-05-03 21:48 | 26.21093 | -80.03332 | 6196 ft | 267 kts | 213° |
| 2026-05-03 21:48 | 26.19518 | -80.04402 | 6024 ft | 263 kts | 219° |
| 2026-05-03 21:49 | 26.18233 | -80.05817 | 5894 ft | 255 kts | 235° |
| 2026-05-03 21:49 | 26.17391 | -80.07484 | 5773 ft | 241 kts | 250° |
| 2026-05-03 21:49 | 26.16872 | -80.09194 | 5631 ft | 225 kts | 252° |
| 2026-05-03 21:49 | 26.16379 | -80.10822 | 5429 ft | 219 kts | 252° |
| 2026-05-03 21:50 | 26.15892 | -80.12417 | 5278 ft | 217 kts | 251° |
| 2026-05-03 21:50 | 26.15404 | -80.14022 | 5398 ft | 228 kts | 252° |
| 2026-05-03 21:50 | 26.14974 | -80.15832 | 6023 ft | 257 kts | 263° |
| 2026-05-03 21:50 | 26.14919 | -80.17873 | 6079 ft | 265 kts | 270° |
| 2026-05-03 21:51 | 26.14952 | -80.19864 | 5998 ft | 246 kts | 270° |
| 2026-05-03 21:51 | 26.14988 | -80.21674 | 6004 ft | 223 kts | 270° |
| 2026-05-03 21:51 | 26.15015 | -80.23387 | 6013 ft | 220 kts | 270° |
| 2026-05-03 21:51 | 26.15036 | -80.25063 | 6010 ft | 219 kts | 269° |
| 2026-05-03 21:52 | 26.15060 | -80.26755 | 6009 ft | 219 kts | 270° |
| 2026-05-03 21:52 | 26.15087 | -80.28451 | 6012 ft | 218 kts | 270° |
| 2026-05-03 21:52 | 26.15103 | -80.30129 | 5603 ft | 219 kts | 269° |
| 2026-05-03 21:52 | 26.15101 | -80.31866 | 5106 ft | 228 kts | 269° |
| 2026-05-03 21:53 | 26.15085 | -80.33602 | 5001 ft | 219 kts | 269° |
| 2026-05-03 21:53 | 26.15063 | -80.35237 | 4986 ft | 202 kts | 268° |
| 2026-05-03 21:53 | 26.15039 | -80.36731 | 5039 ft | 190 kts | 268° |
| 2026-05-03 21:53 | 26.15013 | -80.38186 | 5011 ft | 186 kts | 268° |
| 2026-05-03 21:54 | 26.14986 | -80.39626 | 4999 ft | 186 kts | 268° |
| 2026-05-03 21:54 | 26.14959 | -80.41060 | 5005 ft | 186 kts | 268° |
| 2026-05-03 21:54 | 26.14932 | -80.42500 | 5006 ft | 185 kts | 268° |
| 2026-05-03 21:54 | 26.14905 | -80.43937 | 4989 ft | 187 kts | 268° |
| 2026-05-03 21:55 | 26.14874 | -80.45404 | 4595 ft | 193 kts | 268° |
| 2026-05-03 21:55 | 26.14841 | -80.46915 | 4117 ft | 197 kts | 268° |
| 2026-05-03 21:55 | 26.14808 | -80.48396 | 4003 ft | 185 kts | 268° |
| 2026-05-03 21:55 | 26.14776 | -80.49834 | 4014 ft | 186 kts | 268° |
| 2026-05-03 21:56 | 26.14690 | -80.51270 | 4017 ft | 186 kts | 256° |
| 2026-05-03 21:56 | 26.13976 | -80.52440 | 4008 ft | 188 kts | 216° |
| 2026-05-03 21:56 | 26.12740 | -80.52836 | 4014 ft | 192 kts | 182° |
| 2026-05-03 21:56 | 26.11399 | -80.52674 | 4014 ft | 194 kts | 174° |
| 2026-05-03 21:57 | 26.10069 | -80.52418 | 4011 ft | 194 kts | 173° |
| 2026-05-03 21:57 | 26.08777 | -80.51988 | 4001 ft | 197 kts | 152° |
| 2026-05-03 21:57 | 26.07719 | -80.50998 | 4010 ft | 201 kts | 133° |
| 2026-05-03 21:57 | 26.07002 | -80.49659 | 4005 ft | 204 kts | 112° |
| 2026-05-03 21:58 | 26.06734 | -80.48115 | 4000 ft | 204 kts | 91° |
| 2026-05-03 21:58 | 26.06728 | -80.46527 | 4004 ft | 205 kts | 91° |
| 2026-05-03 21:58 | 26.06724 | -80.44939 | 4004 ft | 206 kts | 90° |
| 2026-05-03 21:58 | 26.06719 | -80.43343 | 4000 ft | 206 kts | 91° |
| 2026-05-03 21:59 | 26.06712 | -80.41753 | 4004 ft | 206 kts | 91° |
| 2026-05-03 21:59 | 26.06706 | -80.40157 | 4003 ft | 206 kts | 90° |
| 2026-05-03 21:59 | 26.06700 | -80.38549 | 3854 ft | 205 kts | 90° |
| 2026-05-03 21:59 | 26.06693 | -80.36969 | 3619 ft | 204 kts | 90° |
| 2026-05-03 22:00 | 26.06686 | -80.35397 | 3372 ft | 203 kts | 90° |
| 2026-05-03 22:00 | 26.06679 | -80.33836 | 3106 ft | 200 kts | 90° |
| 2026-05-03 22:00 | 26.06673 | -80.32320 | 2851 ft | 197 kts | 90° |
| 2026-05-03 22:00 | 26.06666 | -80.30803 | 2598 ft | 195 kts | 90° |
| 2026-05-03 22:01 | 26.06659 | -80.29293 | 2346 ft | 194 kts | 89° |
| 2026-05-03 22:01 | 26.06651 | -80.27818 | 2096 ft | 189 kts | 89° |
| 2026-05-03 22:01 | 26.06644 | -80.26371 | 1851 ft | 185 kts | 88° |
| 2026-05-03 22:01 | 26.06637 | -80.24956 | 1618 ft | 181 kts | 89° |
| 2026-05-03 22:02 | 26.06630 | -80.23574 | 1362 ft | 175 kts | 89° |
| 2026-05-03 22:02 | 26.06623 | -80.22267 | 1148 ft | 162 kts | 88° |
| 2026-05-03 22:02 | 26.06616 | -80.21074 | 960 ft | 148 kts | 88° |
| 2026-05-03 22:02 | 26.06610 | -80.19943 | 775 ft | 145 kts | 87° |
| 2026-05-03 22:03 | 26.06604 | -80.18838 | 581 ft | 143 kts | 87° |
| 2026-05-03 22:03 | 26.06599 | -80.17747 | 401 ft | 142 kts | 87° |
| 2026-05-03 22:03 | 26.06590 | -80.16651 | 198 ft | 142 kts | 86° |
| 2026-05-03 22:03 | 26.06588 | -80.15558 | 26 ft | 139 kts | 89° |
| 2026-05-03 22:04 | 26.06576 | -80.14494 | 302 ft | 142 kts | 88° |
| 2026-05-03 22:04 | 26.06545 | -80.13373 | 1012 ft | 149 kts | 90° |
| 2026-05-03 22:04 | 26.06495 | -80.12198 | 1759 ft | 151 kts | 90° |
| 2026-05-03 22:04 | 26.06458 | -80.11005 | 2012 ft | 168 kts | 90° |
| 2026-05-03 22:05 | 26.06434 | -80.09618 | 1984 ft | 194 kts | 90° |
| 2026-05-03 22:05 | 26.06416 | -80.08023 | 1976 ft | 214 kts | 89° |
| 2026-05-03 22:05 | 26.06404 | -80.06347 | 1981 ft | 218 kts | 89° |
| 2026-05-03 22:05 | 26.06392 | -80.04653 | 1995 ft | 219 kts | 89° |
| 2026-05-03 22:06 | 26.06380 | -80.02954 | 2001 ft | 219 kts | 89° |
| 2026-05-03 22:06 | 26.06364 | -80.01264 | 1997 ft | 218 kts | 89° |
| 2026-05-03 22:06 | 26.06348 | -79.99570 | 1997 ft | 219 kts | 89° |
| 2026-05-03 22:06 | 26.06563 | -79.97919 | 2046 ft | 214 kts | 62° |
| 2026-05-03 22:07 | 26.07532 | -79.96720 | 2288 ft | 217 kts | 26° |
| 2026-05-03 22:07 | 26.09025 | -79.96317 | 2540 ft | 227 kts | 353° |
| 2026-05-03 22:07 | 26.10495 | -79.96901 | 2785 ft | 227 kts | 320° |
| 2026-05-03 22:07 | 26.11554 | -79.98206 | 2952 ft | 229 kts | 304° |
| 2026-05-03 22:08 | 26.12454 | -79.99669 | 2995 ft | 229 kts | 303° |
| 2026-05-03 22:08 | 26.13330 | -80.01145 | 2999 ft | 229 kts | 302° |
| 2026-05-03 22:08 | 26.14206 | -80.02629 | 2997 ft | 228 kts | 302° |
| 2026-05-03 22:08 | 26.15079 | -80.04097 | 3009 ft | 227 kts | 302° |
| 2026-05-03 22:09 | 26.15956 | -80.05566 | 3009 ft | 227 kts | 302° |
| 2026-05-03 22:09 | 26.16825 | -80.07028 | 3009 ft | 227 kts | 303° |
| 2026-05-03 22:09 | 26.17690 | -80.08506 | 3008 ft | 227 kts | 302° |
| 2026-05-03 22:10 | 26.18858 | -80.11622 | 2997 ft | 210 kts | 275° |
| 2026-05-03 22:10 | 26.18954 | -80.13193 | 2991 ft | 197 kts | 272° |
| 2026-05-03 22:10 | 26.19022 | -80.14684 | 2993 ft | 190 kts | 272° |
| 2026-05-03 22:10 | 26.19083 | -80.16139 | 3002 ft | 187 kts | 272° |
| 2026-05-03 22:11 | 26.19145 | -80.17578 | 3041 ft | 186 kts | 272° |
| 2026-05-03 22:11 | 26.19213 | -80.19018 | 3011 ft | 186 kts | 272° |
| 2026-05-03 22:11 | 26.19274 | -80.20461 | 3004 ft | 186 kts | 272° |
| 2026-05-03 22:11 | 26.19341 | -80.21896 | 3003 ft | 189 kts | 272° |
| 2026-05-03 22:12 | 26.19401 | -80.23369 | 2992 ft | 190 kts | 272° |
| 2026-05-03 22:12 | 26.19394 | -80.24824 | 2997 ft | 187 kts | 268° |
| 2026-05-03 22:12 | 26.19338 | -80.26251 | 2991 ft | 185 kts | 267° |
| 2026-05-03 22:12 | 26.19280 | -80.27686 | 2993 ft | 186 kts | 268° |
| 2026-05-03 22:13 | 26.19227 | -80.29128 | 2998 ft | 186 kts | 267° |
| 2026-05-03 22:13 | 26.19180 | -80.30567 | 2999 ft | 186 kts | 267° |
| 2026-05-03 22:13 | 26.19131 | -80.32006 | 3006 ft | 187 kts | 268° |
| 2026-05-03 22:13 | 26.19079 | -80.33457 | 3007 ft | 186 kts | 268° |
| 2026-05-03 22:14 | 26.19024 | -80.34898 | 2998 ft | 185 kts | 268° |
| 2026-05-03 22:14 | 26.18973 | -80.36336 | 3003 ft | 187 kts | 268° |
| 2026-05-03 22:14 | 26.18924 | -80.37781 | 3003 ft | 186 kts | 267° |
| 2026-05-03 22:14 | 26.18878 | -80.39224 | 3005 ft | 186 kts | 268° |
| 2026-05-03 22:15 | 26.18829 | -80.40649 | 3004 ft | 187 kts | 268° |
| 2026-05-03 22:15 | 26.18775 | -80.42100 | 3017 ft | 187 kts | 267° |
| 2026-05-03 22:15 | 26.18723 | -80.43533 | 3017 ft | 185 kts | 268° |
| 2026-05-03 22:15 | 26.18668 | -80.44961 | 3004 ft | 185 kts | 267° |
| 2026-05-03 22:16 | 26.18599 | -80.46393 | 3001 ft | 186 kts | 260° |
| 2026-05-03 22:16 | 26.18004 | -80.47637 | 3011 ft | 187 kts | 221° |
| 2026-05-03 22:16 | 26.16804 | -80.48162 | 3012 ft | 191 kts | 185° |
| 2026-05-03 22:16 | 26.15469 | -80.48048 | 3012 ft | 194 kts | 175° |
| 2026-05-03 22:17 | 26.14134 | -80.47820 | 3011 ft | 194 kts | 172° |
| 2026-05-03 22:17 | 26.12803 | -80.47580 | 3011 ft | 194 kts | 172° |
| 2026-05-03 22:17 | 26.11505 | -80.47194 | 3008 ft | 196 kts | 152° |
| 2026-05-03 22:17 | 26.10477 | -80.46195 | 3007 ft | 198 kts | 135° |
| 2026-05-03 22:18 | 26.09559 | -80.45056 | 3009 ft | 198 kts | 133° |
| 2026-05-03 22:18 | 26.08661 | -80.43901 | 3006 ft | 198 kts | 133° |
| 2026-05-03 22:18 | 26.07848 | -80.42674 | 3004 ft | 200 kts | 119° |
| 2026-05-03 22:18 | 26.07280 | -80.41253 | 3004 ft | 200 kts | 113° |
| 2026-05-03 22:19 | 26.06794 | -80.39799 | 3002 ft | 201 kts | 104° |
| 2026-05-03 22:19 | 26.06689 | -80.38242 | 3002 ft | 203 kts | 90° |
| 2026-05-03 22:19 | 26.06687 | -80.36667 | 3003 ft | 204 kts | 90° |
| 2026-05-03 22:19 | 26.06684 | -80.35090 | 2998 ft | 204 kts | 90° |
| 2026-05-03 22:20 | 26.06678 | -80.33505 | 2961 ft | 204 kts | 91° |
| 2026-05-03 22:20 | 26.06671 | -80.31939 | 2758 ft | 201 kts | 91° |
| 2026-05-03 22:20 | 26.06666 | -80.30908 | 2620 ft | 201 kts | 90° |
| 2026-05-03 22:20 | 26.06659 | -80.29352 | 2361 ft | 200 kts | 90° |
| 2026-05-03 22:21 | 26.06652 | -80.27812 | 2102 ft | 199 kts | 91° |
| 2026-05-03 22:21 | 26.06644 | -80.26274 | 1847 ft | 198 kts | 91° |
| 2026-05-03 22:21 | 26.06636 | -80.24747 | 1592 ft | 195 kts | 90° |
| 2026-05-03 22:21 | 26.06629 | -80.23281 | 1340 ft | 184 kts | 89° |
| 2026-05-03 22:22 | 26.06621 | -80.21917 | 1104 ft | 168 kts | 90° |
| 2026-05-03 22:22 | 26.06614 | -80.20684 | 910 ft | 153 kts | 89° |
| 2026-05-03 22:22 | 26.06608 | -80.19526 | 704 ft | 148 kts | 89° |
| 2026-05-03 22:22 | 26.06607 | -80.18403 | 484 ft | 143 kts | 89° |
| 2026-05-03 22:23 | 26.06601 | -80.17306 | 335 ft | 141 kts | 88° |
| 2026-05-03 22:23 | 26.06592 | -80.16213 | 138 ft | 141 kts | 85° |
| 2026-05-03 22:23 | 26.06588 | -80.15145 | 26 ft | 127 kts | 89° |
| 2026-05-03 22:23 | 26.06584 | -80.14294 | 66 ft | 90 kts | 91° |
| 2026-05-03 22:24 | 26.06591 | -80.13841 | 68 ft | 31 kts | 62° |
| 2026-05-03 22:24 | 26.06705 | -80.13714 | 70 ft | 17 kts | 359° |
| 2026-05-03 22:24 | 26.06743 | -80.13809 | 75 ft | 15 kts | 269° |
| 2026-05-03 22:24 | 26.06742 | -80.13933 | 75 ft | 18 kts | 270° |
| 2026-05-03 22:25 | 26.06708 | -80.14063 | 72 ft | 19 kts | 238° |